Terminal Aerodrome Forecast
Issued by NWS

Home | Current Version | Previous Version | Text Only | Print | Product List | Glossary On
Versions: 1 2 3 4 5 6 7 8 9 10 11 12 13 14 15 16 17 18 19 20 21 22 23 24 25
000
FTUS45 KGJT 012342
TAFEGE
TAF
KEGE 012342Z 0200/0224 33006KT P6SM SCT080 BKN140
     FM020100 VRB04KT P6SM VCSH SCT070 BKN120
     FM020300 08005KT P6SM SCT100 BKN200
     FM021900 20005KT P6SM VCTS SCT070CB BKN120
      AMD LTD TO CLD VIS AND WIND 0202/0213=

USA.gov is the U.S. government's official web portal to all federal, state and local government web resources and services.